Time;durP1;ratioP1;P1;durP2;ratioP2;P2;SDS_P1;SDS_P2;PMS_P1;PMS_P2;Temp;Humidity;BMP_temperature;BMP_pressure;BME280_temperature;BME280_humidity;BME280_pressure;Samples;Min_cycle;Max_cycle;Signal;HPM_P1;HPM_P2
2022/06/17 00:09:40;;;;;;;5.10;2.55;;;20.80;99.90;;;;;;6119577;23;20109;-93
2022/06/17 00:19:18;;;;;;;3.13;2.30;;;20.70;99.90;;;;;;6091616;23;20007;-91
2022/06/17 00:22:13;;;;;;;8.83;2.47;;;20.70;99.90;;;;;;6067492;23;20006;-92
2022/06/17 00:24:39;;;;;;;4.70;2.55;;;20.10;99.90;;;;;;6154621;23;20264;-91
2022/06/17 00:27:37;;;;;;;4.30;2.30;;;20.60;99.90;;;;;;6261609;22;20005;-92
2022/06/17 00:30:36;;;;;;;;;;;;;;;;;;;;;
2022/06/17 00:39:19;;;;;;;;;;;;;;;;;;;;;
2022/06/17 00:42:35;;;;;;;;;;;;;;;;;;;;;
2022/06/17 00:45:40;;;;;;;;;;;;;;;;;;;;;
2022/06/17 00:52:28;;;;;;;;;;;;;;;;;;;;;
2022/06/17 00:55:22;;;;;;;;;;;;;;;;;;;;;
2022/06/17 00:58:18;;;;;;;;;;;;;;;;;;;;;
2022/06/17 01:08:12;;;;;;;6.03;2.55;;;20.50;99.70;;;;;;6205744;23;20005;-90
2022/06/17 01:11:18;;;;;;;;;;;;;;;;;;;;;
2022/06/17 01:14:17;;;;;;;;;;;;;;;;;;;;;
2022/06/17 01:17:40;;;;;;;;;;;;;;;;;;;;;
2022/06/17 01:34:28;;;;;;;;;;;;;;;;;;;;;
2022/06/17 01:37:42;;;;;;;;;;;;;;;;;;;;;
2022/06/17 01:40:51;;;;;;;5.38;2.85;;;19.60;99.90;;;;;;6075256;23;20018;-91
2022/06/17 02:29:27;;;;;;;;;;;;;;;;;;;;;
2022/06/17 02:52:57;;;;;;;;;;;;;;;;;;;;;
2022/06/17 02:55:51;;;;;;;;;;;;;;;;;;;;;
2022/06/17 04:02:20;;;;;;;8.07;2.90;;;18.60;99.90;;;;;;5850753;24;20038;-94
2022/06/17 04:05:22;;;;;;;;;;;;;;;;;;;;;
2022/06/17 04:11:35;;;;;;;5.93;3.15;;;18.60;99.90;;;;;;6001002;23;20012;-92
2022/06/17 04:14:14;;;;;;;4.70;2.80;;;18.60;99.90;;;;;;5993791;23;20004;-91
2022/06/17 04:20:12;;;;;;;7.82;3.42;;;18.50;99.90;;;;;;6086051;22;20006;-89
2022/06/17 04:22:40;;;;;;;6.72;3.10;;;18.50;99.90;;;;;;6151548;23;20009;-88
2022/06/17 04:25:10;;;;;;;6.30;3.00;;;18.50;99.90;;;;;;6150353;23;20001;-89
2022/06/17 04:30:27;;;;;;;9.07;3.20;;;18.50;99.90;;;;;;6150523;23;20020;-90
2022/06/17 04:33:01;;;;;;;4.30;2.75;;;18.50;99.90;;;;;;6148452;22;20376;-90
2022/06/17 04:35:27;;;;;;;4.10;3.35;;;18.60;99.90;;;;;;6147993;22;20009;-90
2022/06/17 04:37:53;;;;;;;6.53;3.25;;;18.60;99.90;;;;;;6147619;22;20043;-92
2022/06/17 04:40:42;;;;;;;4.47;3.30;;;18.60;99.90;;;;;;6146667;22;20058;-90
2022/06/17 04:43:31;;;;;;;11.90;3.20;;;18.60;99.90;;;;;;6143322;23;20012;-91
2022/06/17 04:46:08;;;;;;;5.75;3.17;;;18.70;99.90;;;;;;6146992;23;20454;-90
2022/06/17 04:48:35;;;;;;;3.80;3.13;;;18.60;99.90;;;;;;6146593;23;20013;-91
2022/06/17 04:51:01;;;;;;;9.88;3.58;;;18.70;99.90;;;;;;6147210;23;20009;-92
2022/06/17 04:53:29;;;;;;;3.55;3.05;;;18.70;99.90;;;;;;6145516;22;20411;-91
2022/06/17 04:55:55;;;;;;;12.13;3.80;;;18.80;99.90;;;;;;6148895;23;20063;-92
2022/06/17 04:58:23;;;;;;;6.38;2.97;;;18.80;99.90;;;;;;6145592;22;20010;-90
2022/06/17 05:00:54;;;;;;;6.00;3.15;;;18.90;99.90;;;;;;6146495;22;20184;-89
2022/06/17 05:03:26;;;;;;;8.07;3.92;;;18.90;99.90;;;;;;6147058;22;20013;-90
2022/06/17 05:05:52;;;;;;;7.18;3.47;;;18.90;99.90;;;;;;6146434;22;20096;-91
2022/06/17 05:08:24;;;;;;;9.63;3.90;;;18.90;99.90;;;;;;6146135;22;20048;-90
2022/06/17 05:11:00;;;;;;;6.13;3.50;;;19.00;99.90;;;;;;6147916;23;20041;-92
2022/06/17 05:13:33;;;;;;;5.07;3.15;;;19.00;99.90;;;;;;6147081;22;20001;-91
2022/06/17 05:16:00;;;;;;;5.57;3.47;;;19.10;99.90;;;;;;6148207;23;20009;-90
2022/06/17 05:18:26;;;;;;;8.95;3.70;;;19.10;99.90;;;;;;6147085;22;20010;-89
2022/06/17 05:20:52;;;;;;;11.25;3.63;;;19.10;99.90;;;;;;6145347;22;20006;-88
2022/06/17 05:23:17;;;;;;;4.07;3.03;;;19.20;99.90;;;;;;6146479;23;19997;-91
2022/06/17 05:25:46;;;;;;;7.38;3.30;;;19.30;99.90;;;;;;6146647;23;20014;-87
2022/06/17 05:28:20;;;;;;;5.55;3.45;;;19.30;99.90;;;;;;6146326;23;20001;-90
2022/06/17 05:30:53;;;;;;;6.03;3.20;;;19.40;99.90;;;;;;6146786;23;20013;-88
2022/06/17 05:33:20;;;;;;;5.53;3.20;;;19.50;99.90;;;;;;6136117;23;20420;-89
2022/06/17 05:35:47;;;;;;;8.60;3.53;;;19.50;99.90;;;;;;6144560;22;20005;-90
2022/06/17 05:38:12;;;;;;;7.38;3.50;;;19.60;99.90;;;;;;6146529;23;20002;-88
2022/06/17 05:40:39;;;;;;;6.60;3.30;;;19.70;99.90;;;;;;6146329;23;20009;-89
2022/06/17 05:43:05;;;;;;;7.32;3.33;;;19.70;99.90;;;;;;6144910;23;20088;-89
2022/06/17 05:45:32;;;;;;;10.98;3.50;;;19.80;99.90;;;;;;6146474;23;20073;-88
2022/06/17 05:47:58;;;;;;;13.05;4.05;;;19.90;99.90;;;;;;6146477;22;20002;-89
2022/06/17 05:50:26;;;;;;;7.45;3.72;;;19.90;99.90;;;;;;6145392;22;20013;-88
2022/06/17 05:52:53;;;;;;;;;;;20.00;99.90;;;;;;6146114;22;20005;-89
2022/06/17 05:55:19;;;;;;;7.73;4.07;;;20.20;99.90;;;;;;6145442;23;19928;-89
2022/06/17 05:57:45;;;;;;;7.60;3.65;;;20.20;99.90;;;;;;6145600;22;20005;-88
2022/06/17 06:00:12;;;;;;;6.35;4.15;;;20.30;99.90;;;;;;6146165;22;20013;-89
2022/06/17 06:02:39;;;;;;;9.55;4.25;;;20.40;99.90;;;;;;6145492;22;20084;-89
2022/06/17 06:05:05;;;;;;;11.30;4.13;;;20.50;99.90;;;;;;6147269;23;20006;-89
2022/06/17 06:07:31;;;;;;;7.70;3.80;;;20.50;99.90;;;;;;6147154;23;20450;-88
2022/06/17 06:09:57;;;;;;;7.68;3.70;;;20.60;99.90;;;;;;6147765;23;20016;-90
2022/06/17 06:12:22;;;;;;;12.60;4.43;;;20.70;99.90;;;;;;6145628;22;20006;-88
2022/06/17 06:14:48;;;;;;;8.07;3.80;;;20.90;99.90;;;;;;6147075;23;20006;-89
2022/06/17 06:17:14;;;;;;;5.45;3.58;;;20.90;99.90;;;;;;6146949;23;20001;-89
2022/06/17 06:19:39;;;;;;;8.13;3.92;;;21.00;99.90;;;;;;6145550;22;20048;-94
2022/06/17 06:22:05;;;;;;;8.40;4.05;;;21.10;99.90;;;;;;6146981;23;20017;-88
2022/06/17 06:24:31;;;;;;;9.82;3.22;;;21.10;99.90;;;;;;6146173;22;20025;-89
2022/06/17 06:26:57;;;;;;;7.57;4.00;;;21.20;99.90;;;;;;6148245;23;20054;-88
2022/06/17 06:29:23;;;;;;;7.70;3.60;;;21.30;99.90;;;;;;6145502;22;20337;-88
2022/06/17 06:31:49;;;;;;;11.80;4.15;;;21.30;99.90;;;;;;6145818;22;20010;-93
2022/06/17 06:34:16;;;;;;;7.22;3.80;;;21.40;99.90;;;;;;6147105;23;20001;-93
2022/06/17 06:36:42;;;;;;;11.32;3.35;;;21.50;99.90;;;;;;6145955;22;20009;-94
2022/06/17 06:39:08;;;;;;;7.45;4.07;;;21.60;99.90;;;;;;6147187;23;20111;-89
2022/06/17 06:41:34;;;;;;;11.75;3.67;;;21.70;99.90;;;;;;6145909;22;20400;-90
2022/06/17 06:44:00;;;;;;;10.00;3.85;;;21.70;99.90;;;;;;6148242;23;20140;-91
2022/06/17 06:46:26;;;;;;;7.68;4.00;;;21.90;99.90;;;;;;6145791;22;20012;-90
2022/06/17 06:48:51;;;;;;;13.32;3.75;;;21.90;99.90;;;;;;6145752;22;20277;-94
2022/06/17 06:51:19;;;;;;;11.75;4.10;;;22.00;99.90;;;;;;6147264;23;20063;-89
2022/06/17 06:53:45;;;;;;;5.80;3.95;;;22.10;99.90;;;;;;6148452;23;20010;-88
2022/06/17 06:56:11;;;;;;;5.80;3.53;;;22.20;99.90;;;;;;6157670;22;20012;-87
2022/06/17 06:58:38;;;;;;;8.73;3.78;;;22.30;99.90;;;;;;6158020;23;20073;-88
2022/06/17 07:01:04;;;;;;;8.97;4.17;;;22.40;99.90;;;;;;6164517;23;20025;-88
2022/06/17 07:03:30;;;;;;;5.97;3.58;;;22.50;99.90;;;;;;6158677;22;20017;-89
2022/06/17 07:05:59;;;;;;;11.07;3.50;;;22.60;99.90;;;;;;6149835;23;20005;-89
2022/06/17 07:08:27;;;;;;;6.55;3.50;;;22.70;99.90;;;;;;6145239;22;20009;-89
2022/06/17 07:10:55;;;;;;;10.77;3.65;;;22.80;99.90;;;;;;6145430;22;20018;-88
2022/06/17 07:13:22;;;;;;;9.50;4.00;;;22.90;99.90;;;;;;6146873;23;20025;-90
2022/06/17 07:15:51;;;;;;;8.27;3.53;;;23.00;99.90;;;;;;6146929;23;20016;-89
2022/06/17 07:18:20;;;;;;;9.50;4.00;;;23.10;99.90;;;;;;6146917;23;19997;-89
2022/06/17 07:20:52;;;;;;;9.15;3.80;;;23.20;99.90;;;;;;6145177;22;20341;-91
2022/06/17 07:23:24;;;;;;;7.38;3.33;;;23.30;99.90;;;;;;6150988;23;19998;-88
2022/06/17 07:25:51;;;;;;;9.98;4.03;;;23.40;99.90;;;;;;6149462;23;20002;-89
2022/06/17 07:28:20;;;;;;;12.60;3.45;;;23.50;99.90;;;;;;6147207;23;20366;-90
2022/06/17 07:30:48;;;;;;;9.70;3.50;;;23.70;99.90;;;;;;6146541;23;20017;-90
2022/06/17 07:33:16;;;;;;;14.85;3.75;;;23.80;99.90;;;;;;6146436;23;19997;-89
2022/06/17 07:35:43;;;;;;;12.65;3.63;;;23.90;99.90;;;;;;6146741;23;20026;-89
2022/06/17 07:40:59;;;;;;;12.88;3.88;;;24.00;99.90;;;;;;6146457;23;20016;-89
2022/06/17 07:43:24;;;;;;;11.48;3.83;;;24.10;99.90;;;;;;6144806;22;20005;-88
2022/06/17 07:45:50;;;;;;;10.32;3.70;;;24.20;99.90;;;;;;6146324;23;20337;-91
2022/06/17 07:48:18;;;;;;;8.23;3.50;;;24.30;99.90;;;;;;6146775;23;20006;-88
2022/06/17 07:50:44;;;;;;;10.80;3.50;;;24.40;99.90;;;;;;6146372;23;20092;-89
2022/06/17 07:53:10;;;;;;;7.95;3.35;;;24.50;99.90;;;;;;6144924;22;20006;-89
2022/06/17 07:55:37;;;;;;;12.20;3.70;;;24.60;99.90;;;;;;6146372;23;20002;-89
2022/06/17 07:58:04;;;;;;;13.27;3.42;;;24.70;99.90;;;;;;6148253;23;20027;-88
2022/06/17 08:00:42;;;;;;;9.25;3.47;;;24.90;99.90;;;;;;6147843;23;20001;-89
2022/06/17 08:03:08;;;;;;;12.18;3.83;;;25.00;99.90;;;;;;6146034;23;20349;-88
2022/06/17 08:05:35;;;;;;;8.40;3.35;;;25.10;99.90;;;;;;6147259;22;20010;-94
2022/06/17 08:08:07;;;;;;;12.35;3.80;;;25.20;99.90;;;;;;6147945;23;20001;-88
2022/06/17 08:10:33;;;;;;;14.30;3.83;;;25.30;99.90;;;;;;6148842;23;20055;-89
2022/06/17 08:12:59;;;;;;;9.23;3.10;;;25.50;99.90;;;;;;6146128;22;20002;-88
2022/06/17 08:15:25;;;;;;;9.77;3.80;;;25.60;99.90;;;;;;6147744;23;20086;-89
2022/06/17 08:17:52;;;;;;;10.10;3.30;;;25.70;99.90;;;;;;6146275;22;20388;-90
2022/06/17 08:20:22;;;;;;;5.57;3.17;;;25.90;99.90;;;;;;6147707;23;20005;-89
2022/06/17 08:22:48;;;;;;;11.52;3.55;;;26.00;99.90;;;;;;6146195;22;20009;-89
2022/06/17 08:25:14;;;;;;;10.68;3.60;;;26.10;98.60;;;;;;6147805;23;20081;-89
2022/06/17 08:27:50;;;;;;;6.18;3.33;;;26.20;99.40;;;;;;6147878;23;20029;-89
2022/06/17 08:30:19;;;;;;;10.65;3.63;;;26.40;99.90;;;;;;6145925;23;20018;-89
2022/06/17 08:32:45;;;;;;;9.45;3.53;;;26.50;99.90;;;;;;6145959;22;20071;-89
2022/06/17 08:35:12;;;;;;;10.50;3.10;;;26.60;96.40;;;;;;6147665;23;20002;-89
2022/06/17 08:37:38;;;;;;;12.65;3.35;;;26.60;94.40;;;;;;6148044;23;20453;-90
2022/06/17 08:40:24;;;;;;;10.88;3.40;;;26.70;95.70;;;;;;6148876;23;20101;-90
2022/06/17 08:43:21;;;;;;;9.00;3.45;;;26.70;94.40;;;;;;6147602;23;20457;-89
2022/06/17 08:46:13;;;;;;;7.85;3.28;;;26.80;95.60;;;;;;6147574;23;20008;-90
2022/06/17 08:49:06;;;;;;;12.05;3.38;;;27.00;97.20;;;;;;6148088;23;20006;-88
2022/06/17 08:51:44;;;;;;;7.82;3.50;;;27.20;96.00;;;;;;6147663;22;20452;-89
2022/06/17 08:54:25;;;;;;;7.63;3.47;;;27.30;93.50;;;;;;6147253;23;20294;-89
2022/06/17 08:57:11;;;;;;;8.27;3.20;;;27.40;93.40;;;;;;6145762;22;20008;-89
2022/06/17 08:59:50;;;;;;;9.18;3.40;;;27.50;94.20;;;;;;6148530;23;20008;-89
2022/06/17 09:03:00;;;;;;;6.97;2.92;;;27.60;91.70;;;;;;6145462;22;20059;-89
2022/06/17 09:05:38;;;;;;;9.30;3.38;;;27.60;92.10;;;;;;6154024;23;20446;-89
2022/06/17 09:08:06;;;;;;;;;;;27.60;91.40;;;;;;6147794;23;20008;-89
2022/06/17 09:11:03;;;;;;;18.02;3.50;;;27.70;93.50;;;;;;6147223;22;20218;-89
2022/06/17 09:13:49;;;;;;;9.95;3.22;;;27.90;92.20;;;;;;6147440;23;20071;-89
2022/06/17 09:16:49;;;;;;;8.43;3.03;;;28.00;90.60;;;;;;6147392;23;20036;-89
2022/06/17 09:19:19;;;;;;;8.27;2.97;;;28.20;91.60;;;;;;6147416;23;20009;-90
2022/06/17 09:21:53;;;;;;;6.03;3.00;;;28.20;81.50;;;;;;6145877;22;20051;-88
2022/06/17 09:24:30;;;;;;;6.00;3.33;;;28.20;86.70;;;;;;6146372;22;20005;-89
2022/06/17 09:27:09;;;;;;;7.03;3.20;;;28.30;83.50;;;;;;6147561;23;19997;-93
2022/06/17 09:29:56;;;;;;;8.75;3.45;;;28.30;85.60;;;;;;6146152;22;20510;-89
2022/06/17 09:32:39;;;;;;;4.63;3.17;;;28.30;80.30;;;;;;6146558;22;20035;-90
2022/06/17 09:35:13;;;;;;;12.55;3.60;;;28.30;82.10;;;;;;6147934;23;20013;-89
2022/06/17 09:38:18;;;;;;;9.40;3.35;;;28.50;84.40;;;;;;6148475;23;20491;-93
2022/06/17 09:40:56;;;;;;;10.30;3.15;;;28.60;83.40;;;;;;6151642;23;20010;-90
2022/06/17 09:43:45;;;;;;;7.72;3.30;;;28.70;81.60;;;;;;6145833;22;20147;-91
2022/06/17 09:46:30;;;;;;;7.60;3.30;;;28.80;79.60;;;;;;6122537;23;20398;-90
2022/06/17 09:49:13;;;;;;;7.35;3.10;;;28.80;77.30;;;;;;6145853;22;20013;-90
2022/06/17 09:51:49;;;;;;;6.38;3.10;;;28.90;85.00;;;;;;6148504;23;20010;-89
2022/06/17 09:54:27;;;;;;;411.15;24.48;;;29.10;82.80;;;;;;6147129;23;20029;-89
2022/06/17 09:57:07;;;;;;;6.22;3.45;;;29.20;78.90;;;;;;6147066;23;20376;-89
2022/06/17 09:59:42;;;;;;;7.75;3.10;;;29.30;79.50;;;;;;6147433;23;20195;-91
2022/06/17 10:02:33;;;;;;;11.25;3.47;;;29.30;82.00;;;;;;6147366;23;20043;-89
2022/06/17 10:05:01;;;;;;;7.10;2.95;;;29.40;80.60;;;;;;6145622;22;20010;-92
2022/06/17 10:07:40;;;;;;;9.20;3.67;;;29.50;80.40;;;;;;6146303;22;20059;-92
2022/06/17 10:10:24;;;;;;;7.43;3.45;;;29.50;80.30;;;;;;6145813;22;20010;-89
2022/06/17 10:13:00;;;;;;;9.60;3.58;;;29.60;80.30;;;;;;6147751;23;20072;-90
2022/06/17 10:18:48;;;;;;;4.40;2.97;;;29.60;72.10;;;;;;6195873;23;20079;-90
2022/06/17 10:21:33;;;;;;;7.65;3.40;;;29.60;71.60;;;;;;6149962;23;19998;-89
2022/06/17 10:24:08;;;;;;;8.18;3.38;;;29.60;75.00;;;;;;6146618;22;20354;-92
2022/06/17 10:26:43;;;;;;;8.98;3.50;;;29.70;76.80;;;;;;6147552;23;20242;-90
2022/06/17 10:29:34;;;;;;;9.75;3.30;;;29.90;74.40;;;;;;6147097;22;20006;-91
2022/06/17 10:32:00;;;;;;;10.75;3.38;;;29.90;69.30;;;;;;6147854;22;20006;-89
2022/06/17 10:34:53;;;;;;;8.02;3.33;;;29.90;73.10;;;;;;6146982;23;20055;-90
2022/06/17 10:37:19;;;;;;;8.25;3.50;;;29.90;68.10;;;;;;6153188;23;20076;-91
2022/06/17 10:39:47;;;;;;;7.72;3.25;;;30.10;73.70;;;;;;6145738;22;20006;-89
2022/06/17 10:42:14;;;;;;;;;;;30.30;75.00;;;;;;6146910;23;20009;-89
2022/06/17 10:44:43;;;;;;;8.40;3.50;;;30.30;73.30;;;;;;6147479;23;19900;-92
2022/06/17 10:47:35;;;;;;;7.75;3.30;;;30.30;67.40;;;;;;6147820;23;20008;-90
2022/06/17 10:50:22;;;;;;;5.82;2.97;;;30.30;70.50;;;;;;6151037;23;20013;-90
2022/06/17 10:53:16;;;;;;;7.43;3.20;;;30.30;72.80;;;;;;6147293;23;20001;-90
2022/06/17 10:55:46;;;;;;;7.60;3.30;;;30.40;63.30;;;;;;6151213;22;20010;-94
2022/06/17 10:58:21;;;;;;;6.10;3.35;;;30.60;71.40;;;;;;6148045;22;20338;-90
2022/06/17 11:00:58;;;;;;;6.70;3.00;;;30.60;69.70;;;;;;6155906;22;20059;-90
2022/06/17 11:03:32;;;;;;;;;;;30.60;68.30;;;;;;6147592;22;20012;-91
2022/06/17 11:06:08;;;;;;;6.90;3.10;;;30.70;66.80;;;;;;6146983;23;19979;-89
2022/06/17 11:08:57;;;;;;;9.32;3.03;;;30.70;64.90;;;;;;6145918;22;20008;-91
2022/06/17 11:14:30;;;;;;;7.90;3.20;;;30.80;66.40;;;;;;6151024;23;20066;-90
2022/06/17 11:16:56;;;;;;;10.48;3.15;;;30.80;64.10;;;;;;6153245;23;20449;-90
2022/06/17 11:19:27;;;;;;;7.70;3.10;;;30.70;63.20;;;;;;6149706;23;20082;-92
2022/06/17 11:21:56;;;;;;;7.40;3.20;;;30.90;66.80;;;;;;6149238;22;20072;-95
2022/06/17 11:24:42;;;;;;;12.38;3.30;;;30.90;64.20;;;;;;6120349;23;20465;-88
2022/06/17 11:27:17;;;;;;;7.10;3.10;;;31.00;63.70;;;;;;6147065;23;20018;-92
2022/06/17 11:29:50;;;;;;;12.30;3.35;;;31.00;62.00;;;;;;6147661;22;20465;-93
2022/06/17 11:32:24;;;;;;;10.23;3.05;;;31.00;59.40;;;;;;6148665;22;20070;-91
2022/06/17 11:34:55;;;;;;;6.93;3.05;;;31.10;59.20;;;;;;6146865;22;20002;-90
2022/06/17 11:37:27;;;;;;;9.80;3.30;;;31.20;63.60;;;;;;6146698;22;20016;-90
2022/06/17 11:40:10;;;;;;;11.65;2.80;;;31.20;53.80;;;;;;6147385;22;20044;-91
2022/06/17 11:42:46;;;;;;;10.07;3.25;;;31.20;54.80;;;;;;6148789;23;20002;-91
2022/06/17 11:45:22;;;;;;;8.68;2.70;;;31.20;58.20;;;;;;6147465;22;20010;-90
2022/06/17 11:47:52;;;;;;;8.82;2.88;;;31.20;51.10;;;;;;6148195;22;20001;-93
2022/06/17 11:50:24;;;;;;;10.40;3.03;;;31.20;53.30;;;;;;6154682;22;20009;-92
2022/06/17 11:52:59;;;;;;;6.13;2.78;;;31.20;51.30;;;;;;6142986;22;20052;-90
2022/06/17 11:55:30;;;;;;;6.18;3.00;;;31.10;52.20;;;;;;6146065;23;20010;-89
2022/06/17 11:57:56;;;;;;;9.45;3.10;;;31.10;54.40;;;;;;6146028;22;20010;-90
2022/06/17 12:00:39;;;;;;;5.75;3.00;;;31.20;48.80;;;;;;6146496;22;20012;-89
2022/06/17 12:03:05;;;;;;;8.80;3.03;;;31.20;54.00;;;;;;6148292;23;20013;-90
2022/06/17 12:05:33;;;;;;;4.75;2.92;;;31.30;54.00;;;;;;6146947;22;20008;-90
2022/06/17 12:08:05;;;;;;;7.53;2.85;;;31.40;53.50;;;;;;6146823;22;20033;-89
2022/06/17 12:10:46;;;;;;;9.45;2.90;;;31.40;52.50;;;;;;6145377;22;20062;-88
2022/06/17 12:13:28;;;;;;;9.57;2.97;;;31.50;49.70;;;;;;6147141;23;20001;-88
2022/06/17 12:16:15;;;;;;;8.27;3.03;;;31.40;53.10;;;;;;6147534;23;20056;-88
2022/06/17 12:18:51;;;;;;;8.98;3.15;;;31.50;53.90;;;;;;6146998;23;20388;-89
2022/06/17 12:21:41;;;;;;;6.72;2.95;;;31.50;50.00;;;;;;6162794;22;20008;-87
2022/06/17 12:24:17;;;;;;;8.50;2.90;;;31.50;50.20;;;;;;6161386;22;20006;-88
2022/06/17 12:26:59;;;;;;;4.22;2.78;;;31.50;49.40;;;;;;6151471;23;20009;-92
2022/06/17 12:29:47;;;;;;;8.93;2.90;;;31.50;49.40;;;;;;6146943;23;20059;-89
2022/06/17 12:32:22;;;;;;;7.15;2.80;;;31.60;47.00;;;;;;6148211;23;20093;-89
2022/06/17 12:34:54;;;;;;;11.18;3.00;;;31.50;49.60;;;;;;6148011;23;20491;-88
2022/06/17 12:37:41;;;;;;;8.40;3.40;;;31.70;47.90;;;;;;6147885;23;20006;-88
2022/06/17 12:40:07;;;;;;;15.15;3.08;;;31.60;45.20;;;;;;6146804;23;20418;-89
2022/06/17 12:42:35;;;;;;;5.13;2.72;;;31.70;47.00;;;;;;6144621;22;20058;-89
2022/06/17 12:45:15;;;;;;;6.78;3.05;;;31.80;45.80;;;;;;6145641;22;19997;-96
2022/06/17 12:47:50;;;;;;;14.25;2.97;;;31.80;48.20;;;;;;6145201;22;20341;-89
2022/06/17 12:53:19;;;;;;;16.77;3.40;;;32.00;47.00;;;;;;6147142;23;20017;-90
2022/06/17 12:56:02;;;;;;;10.38;2.85;;;32.00;39.30;;;;;;6146855;23;20033;-89
2022/06/17 12:59:08;;;;;;;8.13;2.80;;;32.10;40.30;;;;;;6147589;23;20005;-89
2022/06/17 13:01:37;;;;;;;6.70;2.80;;;32.10;43.60;;;;;;6145317;22;20031;-88
2022/06/17 13:04:24;;;;;;;8.95;2.85;;;32.10;43.60;;;;;;6146569;23;20001;-88
2022/06/17 13:06:57;;;;;;;11.65;2.90;;;32.20;44.70;;;;;;6147839;22;20009;-91
2022/06/17 13:09:28;;;;;;;9.02;2.85;;;32.20;44.30;;;;;;6149776;23;20008;-91
2022/06/17 13:12:23;;;;;;;9.15;2.80;;;32.30;44.20;;;;;;6153737;22;20041;-88
2022/06/17 13:15:21;;;;;;;13.05;3.13;;;32.40;43.90;;;;;;6151806;23;20009;-96
2022/06/17 13:17:58;;;;;;;12.45;2.58;;;32.40;39.50;;;;;;6154553;23;20055;-91
2022/06/17 13:20:35;;;;;;;7.37;2.70;;;32.40;40.60;;;;;;6149405;22;20013;-89
2022/06/17 13:23:10;;;;;;;5.53;2.55;;;32.40;41.20;;;;;;6146939;23;20773;-88
2022/06/17 13:25:52;;;;;;;9.23;2.80;;;32.40;41.50;;;;;;6147972;23;20005;-89
2022/06/17 13:28:32;;;;;;;11.45;2.90;;;32.40;39.30;;;;;;6148709;22;20345;-88
2022/06/17 13:31:07;;;;;;;7.72;2.65;;;32.40;41.90;;;;;;6146556;23;20016;-90
2022/06/17 13:33:38;;;;;;;12.55;3.25;;;32.40;39.10;;;;;;6145863;22;20349;-89
2022/06/17 13:36:11;;;;;;;10.48;2.80;;;32.40;38.60;;;;;;6150470;23;20025;-90
2022/06/17 13:38:55;;;;;;;8.93;2.85;;;32.20;34.80;;;;;;6147043;22;20033;-90
2022/06/17 13:41:31;;;;;;;14.98;3.15;;;32.20;36.60;;;;;;6148421;23;20001;-95
2022/06/17 13:44:19;;;;;;;10.27;2.90;;;32.20;37.70;;;;;;6148093;23;20050;-91
2022/06/17 13:47:00;;;;;;;7.03;2.85;;;32.40;40.10;;;;;;6147481;23;20420;-89
2022/06/17 13:49:36;;;;;;;10.27;3.03;;;32.40;38.60;;;;;;6145083;22;20017;-90
2022/06/17 13:52:25;;;;;;;6.63;2.70;;;32.50;38.30;;;;;;6149521;22;20018;-91
2022/06/17 13:54:59;;;;;;;8.88;3.03;;;32.50;35.50;;;;;;6148518;23;19998;-91
2022/06/17 13:57:50;;;;;;;8.60;2.97;;;32.50;35.80;;;;;;6150099;22;20009;-89
2022/06/17 14:00:25;;;;;;;11.45;2.80;;;32.60;39.10;;;;;;6145589;22;20018;-88
2022/06/17 14:03:04;;;;;;;9.77;2.70;;;32.70;39.90;;;;;;6147087;23;20025;-94
2022/06/17 14:05:51;;;;;;;7.65;3.00;;;32.80;35.30;;;;;;6147016;23;20001;-90
2022/06/17 14:08:17;;;;;;;;;;;32.80;38.00;;;;;;6147305;22;20005;-92
2022/06/17 14:14:17;;;;;;;10.93;3.25;;;32.90;40.00;;;;;;6147076;23;20067;-90
2022/06/17 14:17:02;;;;;;;8.13;2.80;;;33.00;38.50;;;;;;6145405;22;20063;-89
2022/06/17 14:19:30;;;;;;;10.02;2.95;;;33.10;38.20;;;;;;6145084;22;20012;-88
2022/06/17 14:21:58;;;;;;;10.25;3.30;;;33.10;37.30;;;;;;6147692;23;20005;-87
2022/06/17 14:24:42;;;;;;;13.25;2.90;;;33.00;36.30;;;;;;6145729;22;20456;-88
2022/06/17 14:27:23;;;;;;;9.18;2.83;;;33.00;36.00;;;;;;6146571;23;20033;-92
2022/06/17 14:30:16;;;;;;;11.18;3.10;;;33.10;36.80;;;;;;6144655;22;20002;-89
2022/06/17 14:32:49;;;;;;;9.30;3.13;;;33.10;37.30;;;;;;6144228;23;20006;-92
2022/06/17 14:35:51;;;;;;;8.57;3.20;;;33.20;38.70;;;;;;6144983;22;20349;-88
2022/06/17 14:38:30;;;;;;;10.93;3.08;;;33.20;36.40;;;;;;6145263;22;20340;-88
2022/06/17 14:44:17;;;;;;;10.90;2.88;;;33.40;36.50;;;;;;6146061;23;20412;-88
2022/06/17 14:47:38;;;;;;;8.20;2.90;;;33.40;34.80;;;;;;6135930;23;20067;-88
2022/06/17 14:50:12;;;;;;;8.80;3.00;;;33.40;35.60;;;;;;6144362;23;20052;-86
2022/06/17 14:52:45;;;;;;;11.57;3.20;;;33.40;34.20;;;;;;6143568;22;20059;-87
2022/06/17 14:55:26;;;;;;;10.30;3.00;;;33.50;36.90;;;;;;6145187;22;20002;-91
2022/06/17 14:57:55;;;;;;;15.05;3.40;;;33.60;34.60;;;;;;6144618;22;20527;-91
2022/06/17 15:00:26;;;;;;;11.32;3.10;;;33.60;35.50;;;;;;6173344;22;20006;-94
2022/06/17 15:02:54;;;;;;;8.20;2.92;;;33.60;33.80;;;;;;6173549;22;20019;-90
2022/06/17 15:05:25;;;;;;;19.58;3.30;;;33.60;34.60;;;;;;6174044;22;19985;-91
2022/06/17 15:08:00;;;;;;;14.05;3.42;;;33.60;35.10;;;;;;6153895;23;20009;-90
2022/06/17 15:10:31;;;;;;;11.73;3.28;;;33.70;35.50;;;;;;6146488;22;20018;-91
2022/06/17 15:16:33;;;;;;;13.40;3.25;;;33.70;35.40;;;;;;6150727;23;20013;-92
2022/06/17 15:19:05;;;;;;;14.27;3.03;;;33.60;34.30;;;;;;6157101;23;20076;-91
2022/06/17 15:21:41;;;;;;;16.40;3.05;;;33.40;34.80;;;;;;6160698;23;20445;-87
2022/06/17 15:24:13;;;;;;;9.18;3.20;;;33.40;34.50;;;;;;6161441;23;19997;-88
2022/06/17 15:26:52;;;;;;;11.77;3.10;;;33.40;35.10;;;;;;6162727;23;20005;-89
2022/06/17 15:29:23;;;;;;;15.52;3.50;;;33.40;33.90;;;;;;6156047;22;20370;-86
2022/06/17 15:31:51;;;;;;;9.82;3.30;;;33.40;33.90;;;;;;6157721;22;20219;-90
2022/06/17 15:34:36;;;;;;;10.38;3.20;;;33.40;36.00;;;;;;6161783;22;20001;-86
2022/06/17 15:37:02;;;;;;;12.48;2.85;;;33.50;35.70;;;;;;6155620;23;20089;-90
